Time;durP1;ratioP1;P1;durP2;ratioP2;P2;SDS_P1;SDS_P2;PMS_P1;PMS_P2;Temp;Humidity;BMP_temperature;BMP_pressure;BME280_temperature;BME280_humidity;BME280_pressure;Samples;Min_cycle;Max_cycle;Signal;HPM_P1;HPM_P2
2023/06/04 00:00:34;;;;;;;2.97;1.35;;;;;;;;;;5024371;28;20531;-73
2023/06/04 00:02:59;;;;;;;1.63;1.10;;;;;;;;;;5016965;28;20058;-73
2023/06/04 00:05:25;;;;;;;3.55;1.33;;;;;;;;;;5023129;28;20044;-73
2023/06/04 00:07:51;;;;;;;1.90;1.10;;;;;;;;;;5024365;28;20120;-73
2023/06/04 00:10:17;;;;;;;2.65;1.13;;;;;;;;;;5025498;28;20028;-73
2023/06/04 00:12:42;;;;;;;2.53;1.35;;;;;;;;;;5024056;28;20037;-73
2023/06/04 00:15:08;;;;;;;1.60;1.13;;;;;;;;;;5024999;28;20037;-73
2023/06/04 00:17:33;;;;;;;3.92;1.33;;;;;;;;;;5021183;28;20063;-73
2023/06/04 00:19:58;;;;;;;4.40;1.40;;;;;;;;;;5004917;28;20371;-73
2023/06/04 00:22:24;;;;;;;3.28;1.05;;;;;;;;;;5021009;28;20568;-73
2023/06/04 00:24:49;;;;;;;2.17;1.10;;;;;;;;;;5024269;28;20038;-73
2023/06/04 00:27:15;;;;;;;2.42;1.02;;;;;;;;;;5024601;28;20029;-73
2023/06/04 00:29:40;;;;;;;2.85;1.10;;;;;;;;;;5017216;28;20084;-73
2023/06/04 00:32:06;;;;;;;2.28;1.30;;;;;;;;;;5020490;28;20766;-73
2023/06/04 00:34:31;;;;;;;1.52;1.15;;;;;;;;;;5009193;28;20022;-73
2023/06/04 00:36:56;;;;;;;3.97;1.30;;;;;;;;;;5020805;28;20049;-73
2023/06/04 00:39:22;;;;;;;2.00;1.30;;;;;;;;;;5024228;28;20041;-73
2023/06/04 00:41:47;;;;;;;2.65;1.10;;;;;;;;;;5023857;28;20443;-73
2023/06/04 00:44:12;;;;;;;3.17;1.25;;;;;;;;;;5023606;28;20033;-73
2023/06/04 00:46:38;;;;;;;1.80;1.20;;;;;;;;;;5023862;28;20032;-73
2023/06/04 00:49:05;;;;;;;1.92;1.38;;;;;;;;;;5024548;28;20032;-73
2023/06/04 00:51:31;;;;;;;1.60;1.20;;;;;;;;;;5023659;28;20029;-73
2023/06/04 00:53:58;;;;;;;3.08;1.40;;;;;;;;;;5024354;28;20175;-73
2023/06/04 00:56:23;;;;;;;1.85;1.30;;;;;;;;;;5019129;28;20030;-73
2023/06/04 00:58:49;;;;;;;1.90;1.30;;;;;;;;;;5019937;28;20056;-73
2023/06/04 01:01:17;;;;;;;1.95;1.13;;;;;;;;;;5021580;28;20018;-73
2023/06/04 01:03:46;;;;;;;2.40;1.30;;;;;;;;;;5022535;28;20095;-72
2023/06/04 01:06:39;;;;;;;3.63;1.27;;;;;;;;;;5024093;28;20036;-73
2023/06/04 01:09:05;;;;;;;3.22;1.10;;;;;;;;;;5019252;28;20083;-73
2023/06/04 01:11:36;;;;;;;2.65;1.52;;;;;;;;;;5030279;28;20041;-73
2023/06/04 01:14:02;;;;;;;3.72;1.38;;;;;;;;;;5037230;28;20033;-73
2023/06/04 01:16:33;;;;;;;2.70;1.50;;;;;;;;;;5031709;28;20109;-72
2023/06/04 01:19:02;;;;;;;4.70;1.35;;;;;;;;;;5028230;28;20048;-73
2023/06/04 01:21:31;;;;;;;2.60;1.17;;;;;;;;;;5028191;28;20033;-73
2023/06/04 01:24:00;;;;;;;2.05;1.35;;;;;;;;;;5026391;28;20530;-73
2023/06/04 01:26:27;;;;;;;2.03;1.10;;;;;;;;;;5027589;28;20704;-73
2023/06/04 01:28:54;;;;;;;3.25;1.40;;;;;;;;;;5028231;28;20042;-73
2023/06/04 01:31:24;;;;;;;3.15;1.15;;;;;;;;;;5028157;28;20030;-73
2023/06/04 01:33:57;;;;;;;2.17;1.30;;;;;;;;;;5025857;28;20061;-73
2023/06/04 01:36:23;;;;;;;2.70;1.33;;;;;;;;;;5020013;28;20037;-73
2023/06/04 01:38:48;;;;;;;1.98;1.10;;;;;;;;;;5027447;28;20045;-73
2023/06/04 01:41:14;;;;;;;2.50;1.20;;;;;;;;;;5026560;28;20026;-73
2023/06/04 01:43:39;;;;;;;2.28;1.30;;;;;;;;;;5028123;28;20112;-73
2023/06/04 01:46:04;;;;;;;3.17;1.58;;;;;;;;;;5027508;28;20025;-73
2023/06/04 01:48:31;;;;;;;4.40;1.58;;;;;;;;;;5026448;28;20770;-73
2023/06/04 01:50:57;;;;;;;3.60;1.30;;;;;;;;;;5025905;28;20068;-73
2023/06/04 01:53:22;;;;;;;4.03;1.40;;;;;;;;;;5026584;28;20112;-73
2023/06/04 01:55:49;;;;;;;1.67;1.40;;;;;;;;;;5025891;28;20029;-72
2023/06/04 01:58:17;;;;;;;1.95;1.33;;;;;;;;;;5020616;28;20574;-73
2023/06/04 02:00:43;;;;;;;2.20;1.38;;;;;;;;;;5025446;28;20071;-73
2023/06/04 02:03:10;;;;;;;4.22;1.40;;;;;;;;;;5026451;28;20077;-73
2023/06/04 02:05:36;;;;;;;1.48;1.17;;;;;;;;;;5009787;28;20100;-73
2023/06/04 02:08:04;;;;;;;2.72;1.40;;;;;;;;;;5016803;28;20037;-73
2023/06/04 02:10:30;;;;;;;2.40;1.40;;;;;;;;;;5010660;28;20033;-73
2023/06/04 02:13:03;;;;;;;2.55;1.48;;;;;;;;;;5009967;28;20035;-72
2023/06/04 02:15:29;;;;;;;2.28;1.50;;;;;;;;;;5020798;28;20033;-73
2023/06/04 02:18:02;;;;;;;2.80;1.75;;;;;;;;;;5025698;28;20029;-72
2023/06/04 02:20:28;;;;;;;4.00;1.83;;;;;;;;;;5025545;28;20099;-73
2023/06/04 02:22:56;;;;;;;3.67;1.90;;;;;;;;;;5021068;28;20033;-72
2023/06/04 02:25:23;;;;;;;3.75;1.98;;;;;;;;;;5017773;28;20107;-73
2023/06/04 02:27:48;;;;;;;4.82;1.80;;;;;;;;;;5026891;28;20075;-72
2023/06/04 02:30:15;;;;;;;3.45;1.95;;;;;;;;;;5025823;28;20026;-73
2023/06/04 02:32:40;;;;;;;4.82;1.90;;;;;;;;;;5025921;28;20052;-73
2023/06/04 02:35:06;;;;;;;2.67;1.67;;;;;;;;;;5030081;28;20038;-72
2023/06/04 02:37:31;;;;;;;2.28;1.60;;;;;;;;;;5037713;28;20029;-73
2023/06/04 02:39:56;;;;;;;2.67;1.83;;;;;;;;;;5028556;28;20037;-72
2023/06/04 02:42:22;;;;;;;3.00;1.80;;;;;;;;;;5019716;28;20056;-72
2023/06/04 02:44:47;;;;;;;5.22;1.98;;;;;;;;;;5026256;28;20045;-72
2023/06/04 02:47:12;;;;;;;2.80;1.70;;;;;;;;;;5024948;28;20049;-72
2023/06/04 02:49:38;;;;;;;2.60;1.58;;;;;;;;;;5025948;28;20030;-72
2023/06/04 02:52:03;;;;;;;2.65;1.80;;;;;;;;;;5026901;28;20461;-72
2023/06/04 02:54:29;;;;;;;2.92;1.80;;;;;;;;;;5017914;28;20511;-72
2023/06/04 02:56:54;;;;;;;2.95;1.77;;;;;;;;;;5023769;28;20021;-72
2023/06/04 02:59:19;;;;;;;2.42;1.70;;;;;;;;;;5024966;28;20072;-73
2023/06/04 03:01:45;;;;;;;5.80;2.20;;;;;;;;;;5024024;28;20125;-72
2023/06/04 03:04:15;;;;;;;3.08;1.70;;;;;;;;;;5026344;28;20104;-72
2023/06/04 03:06:44;;;;;;;3.20;1.80;;;;;;;;;;5024635;28;20396;-73
2023/06/04 03:09:10;;;;;;;3.88;2.00;;;;;;;;;;5025916;28;20034;-72
2023/06/04 03:11:36;;;;;;;5.80;2.03;;;;;;;;;;5025734;28;20118;-73
2023/06/04 03:14:01;;;;;;;3.78;1.85;;;;;;;;;;5024301;28;20475;-72
2023/06/04 03:16:27;;;;;;;2.58;1.75;;;;;;;;;;5024742;28;20067;-72
2023/06/04 03:18:52;;;;;;;4.30;1.90;;;;;;;;;;5025638;28;20036;-72
2023/06/04 03:21:17;;;;;;;4.03;2.03;;;;;;;;;;5024016;28;20033;-73
2023/06/04 03:23:43;;;;;;;3.85;1.88;;;;;;;;;;5025670;28;20075;-73
2023/06/04 03:26:08;;;;;;;2.60;1.80;;;;;;;;;;5025317;28;20034;-73
2023/06/04 03:28:34;;;;;;;3.10;1.67;;;;;;;;;;5022043;28;20096;-72
2023/06/04 03:30:59;;;;;;;3.17;1.98;;;;;;;;;;5024430;28;20032;-72
2023/06/04 03:33:25;;;;;;;4.30;2.20;;;;;;;;;;5025267;28;20030;-72
2023/06/04 03:35:52;;;;;;;2.90;1.85;;;;;;;;;;5023748;28;20041;-72
2023/06/04 03:38:17;;;;;;;2.85;1.90;;;;;;;;;;5015157;28;20026;-72
2023/06/04 03:40:43;;;;;;;3.95;2.05;;;;;;;;;;5025023;28;20036;-72
2023/06/04 03:43:09;;;;;;;6.25;2.15;;;;;;;;;;5025406;28;20036;-73
2023/06/04 03:45:35;;;;;;;6.40;2.13;;;;;;;;;;5024913;28;20029;-72
2023/06/04 03:48:00;;;;;;;3.05;2.00;;;;;;;;;;5024861;28;20029;-72
2023/06/04 03:50:25;;;;;;;3.00;2.00;;;;;;;;;;5025350;28;20044;-72
2023/06/04 03:52:51;;;;;;;8.48;2.42;;;;;;;;;;5022708;28;20041;-72
2023/06/04 03:55:16;;;;;;;2.88;1.85;;;;;;;;;;5025121;28;20028;-73
2023/06/04 03:57:42;;;;;;;2.83;2.03;;;;;;;;;;5021710;28;20033;-72
2023/06/04 04:00:12;;;;;;;3.80;2.05;;;;;;;;;;5032752;28;20056;-72
2023/06/04 04:02:39;;;;;;;2.95;1.80;;;;;;;;;;5025397;28;20042;-73
2023/06/04 04:05:05;;;;;;;6.97;2.30;;;;;;;;;;5027333;28;20447;-72
2023/06/04 04:07:30;;;;;;;3.75;2.00;;;;;;;;;;5010911;28;20705;-72
2023/06/04 04:09:56;;;;;;;2.72;1.70;;;;;;;;;;5022640;28;20040;-72
2023/06/04 04:12:21;;;;;;;3.17;1.95;;;;;;;;;;5025288;28;20036;-73
2023/06/04 04:14:47;;;;;;;2.33;2.00;;;;;;;;;;5024453;28;20128;-72
2023/06/04 04:17:16;;;;;;;3.60;2.05;;;;;;;;;;5025363;28;20459;-72
2023/06/04 04:19:41;;;;;;;4.93;2.28;;;;;;;;;;5022458;28;20040;-73
2023/06/04 04:22:08;;;;;;;3.67;2.03;;;;;;;;;;5024860;28;20029;-72
2023/06/04 04:24:35;;;;;;;4.50;2.15;;;;;;;;;;5024643;28;20049;-72
2023/06/04 04:27:03;;;;;;;5.82;2.38;;;;;;;;;;5022985;28;20701;-73
2023/06/04 04:29:32;;;;;;;3.42;1.98;;;;;;;;;;5012802;28;20443;-73
2023/06/04 04:32:00;;;;;;;5.05;2.30;;;;;;;;;;5017951;28;20064;-73
2023/06/04 04:34:26;;;;;;;2.95;1.90;;;;;;;;;;5022876;28;20017;-72
2023/06/04 04:36:52;;;;;;;4.80;2.20;;;;;;;;;;5024319;28;20109;-73
2023/06/04 04:39:27;;;;;;;3.20;2.20;;;;;;;;;;5020646;28;20034;-73
2023/06/04 04:41:53;;;;;;;5.95;2.47;;;;;;;;;;5023680;28;20085;-72
2023/06/04 04:44:19;;;;;;;3.78;1.98;;;;;;;;;;5024385;28;20025;-72
2023/06/04 04:46:45;;;;;;;5.38;2.45;;;;;;;;;;5022912;28;20079;-73
2023/06/04 04:49:10;;;;;;;3.65;2.08;;;;;;;;;;5024574;28;20033;-73
2023/06/04 04:51:36;;;;;;;3.72;2.10;;;;;;;;;;5015691;28;20069;-72
2023/06/04 04:54:02;;;;;;;3.80;2.28;;;;;;;;;;5027150;28;20037;-73
2023/06/04 04:56:28;;;;;;;5.68;2.45;;;;;;;;;;5028003;28;20033;-72
2023/06/04 04:58:54;;;;;;;5.72;2.35;;;;;;;;;;5028304;28;20040;-72
2023/06/04 05:01:20;;;;;;;5.55;2.65;;;;;;;;;;5024629;28;20171;-73
2023/06/04 05:03:45;;;;;;;3.58;2.10;;;;;;;;;;5027499;28;20804;-73
2023/06/04 05:06:11;;;;;;;7.95;2.63;;;;;;;;;;5027729;28;20939;-73
2023/06/04 05:08:36;;;;;;;4.00;2.35;;;;;;;;;;5025665;28;20034;-72
2023/06/04 05:11:01;;;;;;;4.63;2.33;;;;;;;;;;5028300;28;20025;-73
2023/06/04 05:13:27;;;;;;;5.07;2.45;;;;;;;;;;5028670;28;20448;-72
2023/06/04 05:15:52;;;;;;;3.63;2.30;;;;;;;;;;5026397;28;20037;-73
2023/06/04 05:18:21;;;;;;;3.35;2.22;;;;;;;;;;5018604;28;20037;-72
2023/06/04 05:20:47;;;;;;;4.00;2.53;;;;;;;;;;5026845;28;20034;-72
2023/06/04 05:23:13;;;;;;;3.85;2.65;;;;;;;;;;5030950;28;20040;-72
2023/06/04 05:25:40;;;;;;;3.88;2.38;;;;;;;;;;5039500;28;20024;-72
2023/06/04 05:28:06;;;;;;;12.35;2.70;;;;;;;;;;5039909;28;20033;-72
2023/06/04 05:30:33;;;;;;;4.00;2.42;;;;;;;;;;5014470;28;20057;-72
2023/06/04 05:32:59;;;;;;;3.53;2.42;;;;;;;;;;5025342;28;20525;-72
2023/06/04 05:35:24;;;;;;;6.00;2.58;;;;;;;;;;5027663;28;20049;-73
2023/06/04 05:37:53;;;;;;;4.75;2.38;;;;;;;;;;5027786;28;20041;-73
2023/06/04 05:40:23;;;;;;;6.82;3.13;;;;;;;;;;5027674;28;20028;-73
2023/06/04 05:42:49;;;;;;;7.55;2.67;;;;;;;;;;5026142;28;20040;-72
2023/06/04 05:45:14;;;;;;;4.97;2.95;;;;;;;;;;5027601;28;20046;-72
2023/06/04 05:47:40;;;;;;;4.63;2.70;;;;;;;;;;5013177;28;20084;-73
2023/06/04 05:50:06;;;;;;;4.97;2.75;;;;;;;;;;5026687;28;20030;-72
2023/06/04 05:52:32;;;;;;;4.00;2.80;;;;;;;;;;5025627;28;20021;-73
2023/06/04 05:54:57;;;;;;;5.05;2.53;;;;;;;;;;5026017;28;20646;-72
2023/06/04 05:57:23;;;;;;;4.30;2.72;;;;;;;;;;5021618;28;20529;-72
2023/06/04 05:59:48;;;;;;;8.13;3.15;;;;;;;;;;5025759;28;20091;-72
2023/06/04 06:02:14;;;;;;;6.95;2.95;;;;;;;;;;5026307;28;20352;-72
2023/06/04 06:04:40;;;;;;;4.65;2.55;;;;;;;;;;5026584;28;20071;-73
2023/06/04 06:07:05;;;;;;;5.15;2.75;;;;;;;;;;5026556;28;20564;-72
2023/06/04 06:09:31;;;;;;;4.93;3.10;;;;;;;;;;5026812;28;20434;-73
2023/06/04 06:11:56;;;;;;;5.45;3.00;;;;;;;;;;5026524;28;20577;-73
2023/06/04 06:14:23;;;;;;;3.88;2.83;;;;;;;;;;5026382;28;20116;-73
2023/06/04 06:16:48;;;;;;;5.28;2.88;;;;;;;;;;5025890;28;20759;-72
2023/06/04 06:19:13;;;;;;;8.95;2.75;;;;;;;;;;5026947;28;20024;-73
2023/06/04 06:21:39;;;;;;;5.13;2.70;;;;;;;;;;5025587;28;20141;-73
2023/06/04 06:24:04;;;;;;;4.43;2.50;;;;;;;;;;5024858;28;20045;-73
2023/06/04 06:26:29;;;;;;;6.63;2.63;;;;;;;;;;5026043;28;20040;-75
2023/06/04 06:28:55;;;;;;;4.00;2.80;;;;;;;;;;5026282;28;20033;-73
2023/06/04 06:31:21;;;;;;;4.30;2.67;;;;;;;;;;5026395;28;20104;-74
2023/06/04 06:33:46;;;;;;;3.70;2.42;;;;;;;;;;5026063;28;20140;-73
2023/06/04 06:36:12;;;;;;;4.65;2.55;;;;;;;;;;5026386;28;20038;-74
2023/06/04 06:38:37;;;;;;;4.32;2.60;;;;;;;;;;5022064;28;20049;-74
2023/06/04 06:41:02;;;;;;;4.43;2.38;;;;;;;;;;5026446;28;20707;-74
2023/06/04 06:43:28;;;;;;;5.57;2.70;;;;;;;;;;5025077;28;20778;-74
2023/06/04 06:45:53;;;;;;;6.70;2.58;;;;;;;;;;5019750;28;20033;-74
2023/06/04 06:48:18;;;;;;;4.22;2.70;;;;;;;;;;5024539;28;20046;-74
2023/06/04 06:50:44;;;;;;;3.47;1.95;;;;;;;;;;5035633;28;20048;-74
2023/06/04 06:53:09;;;;;;;6.72;2.67;;;;;;;;;;5023573;28;20033;-74
2023/06/04 06:55:34;;;;;;;7.53;2.60;;;;;;;;;;5038954;28;20049;-74
2023/06/04 06:58:00;;;;;;;8.32;2.72;;;;;;;;;;5024110;28;20018;-73
2023/06/04 07:00:27;;;;;;;4.47;2.70;;;;;;;;;;5024042;28;20533;-74
2023/06/04 07:02:53;;;;;;;5.45;2.72;;;;;;;;;;5025626;28;20052;-74
2023/06/04 07:05:18;;;;;;;5.93;2.40;;;;;;;;;;5025604;28;20033;-74
2023/06/04 07:07:44;;;;;;;7.68;2.85;;;;;;;;;;5025669;28;20021;-73
2023/06/04 07:10:09;;;;;;;6.40;2.50;;;;;;;;;;5025663;28;20017;-73
2023/06/04 07:12:35;;;;;;;5.20;2.38;;;;;;;;;;5025526;28;20072;-73
2023/06/04 07:15:00;;;;;;;3.35;2.50;;;;;;;;;;5023274;28;20537;-73
2023/06/04 07:17:25;;;;;;;4.05;2.60;;;;;;;;;;5025603;28;20400;-73
2023/06/04 07:19:51;;;;;;;3.88;2.50;;;;;;;;;;5025242;28;20537;-73
2023/06/04 07:22:16;;;;;;;3.63;2.15;;;;;;;;;;5025854;28;20025;-73
2023/06/04 07:24:42;;;;;;;3.58;2.13;;;;;;;;;;5024911;28;20108;-73
2023/06/04 07:27:13;;;;;;;3.30;2.35;;;;;;;;;;5025007;28;20025;-74
2023/06/04 07:29:38;;;;;;;5.25;2.22;;;;;;;;;;5016365;28;20037;-73
2023/06/04 07:32:04;;;;;;;11.05;2.38;;;;;;;;;;5019126;28;21308;-73
2023/06/04 07:34:29;;;;;;;5.32;2.05;;;;;;;;;;5019294;28;20025;-73
2023/06/04 07:36:55;;;;;;;5.40;2.30;;;;;;;;;;5024253;28;20416;-73
2023/06/04 07:39:20;;;;;;;8.05;2.60;;;;;;;;;;5019079;28;20077;-74
2023/06/04 07:41:45;;;;;;;2.90;2.00;;;;;;;;;;5019767;28;20037;-76
2023/06/04 07:44:11;;;;;;;3.05;2.03;;;;;;;;;;5016628;28;20048;-76
2023/06/04 07:46:36;;;;;;;3.72;2.05;;;;;;;;;;5024083;28;20052;-72
2023/06/04 07:49:01;;;;;;;5.82;2.35;;;;;;;;;;5018415;28;20025;-74
2023/06/04 07:51:26;;;;;;;3.42;1.98;;;;;;;;;;5021700;28;20236;-71
2023/06/04 07:53:52;;;;;;;5.07;2.08;;;;;;;;;;5023382;28;20034;-72
2023/06/04 07:56:17;;;;;;;7.25;2.42;;;;;;;;;;5023651;28;20056;-72
2023/06/04 07:58:45;;;;;;;3.88;2.22;;;;;;;;;;5023178;28;20029;-72
2023/06/04 08:01:10;;;;;;;4.22;2.28;;;;;;;;;;5023648;28;20021;-72
2023/06/04 08:03:35;;;;;;;4.07;2.00;;;;;;;;;;5022739;28;20045;-71
2023/06/04 08:06:01;;;;;;;3.83;2.25;;;;;;;;;;5024734;28;20630;-72
2023/06/04 08:08:27;;;;;;;2.85;1.88;;;;;;;;;;5025676;28;20043;-71
2023/06/04 08:10:52;;;;;;;5.47;2.10;;;;;;;;;;5029512;28;20515;-72
2023/06/04 08:13:17;;;;;;;4.45;2.10;;;;;;;;;;5036157;28;20060;-72
2023/06/04 08:15:43;;;;;;;2.50;1.70;;;;;;;;;;5032326;28;20034;-71
2023/06/04 08:18:08;;;;;;;3.00;1.70;;;;;;;;;;5023044;28;20079;-71
2023/06/04 08:20:34;;;;;;;4.82;2.10;;;;;;;;;;5023643;28;20149;-72
2023/06/04 08:22:59;;;;;;;2.83;1.58;;;;;;;;;;5022200;28;20103;-72
2023/06/04 08:25:24;;;;;;;6.13;2.30;;;;;;;;;;5024100;28;20441;-72
2023/06/04 08:27:50;;;;;;;5.45;2.20;;;;;;;;;;5022513;28;20040;-72
2023/06/04 08:30:16;;;;;;;2.85;1.83;;;;;;;;;;5023894;28;20116;-72
2023/06/04 08:32:41;;;;;;;3.00;1.60;;;;;;;;;;5023250;28;20065;-72
2023/06/04 08:35:07;;;;;;;2.40;1.52;;;;;;;;;;5022343;28;20032;-72
2023/06/04 08:37:32;;;;;;;3.70;1.67;;;;;;;;;;5023701;28;20025;-72
2023/06/04 08:39:58;;;;;;;3.13;1.80;;;;;;;;;;5019949;28;20017;-70
2023/06/04 08:42:31;;;;;;;3.88;1.70;;;;;;;;;;5022525;28;20029;-73
2023/06/04 08:44:57;;;;;;;3.75;1.85;;;;;;;;;;5021339;28;20037;-72
2023/06/04 08:47:25;;;;;;;1.85;1.48;;;;;;;;;;5023084;28;20021;-72
2023/06/04 08:49:52;;;;;;;3.80;1.88;;;;;;;;;;5024085;28;20044;-73
2023/06/04 08:52:21;;;;;;;3.80;1.63;;;;;;;;;;5023922;28;20072;-73
2023/06/04 08:54:48;;;;;;;2.80;1.63;;;;;;;;;;5021503;28;20049;-73
2023/06/04 08:57:14;;;;;;;2.50;1.63;;;;;;;;;;5011970;28;20665;-73
2023/06/04 08:59:40;;;;;;;3.10;1.55;;;;;;;;;;5013852;28;20047;-73
2023/06/04 09:02:07;;;;;;;3.13;1.58;;;;;;;;;;5021525;28;20053;-73
2023/06/04 09:04:33;;;;;;;3.40;1.60;;;;;;;;;;5021912;28;20021;-73
2023/06/04 09:07:02;;;;;;;2.80;1.85;;;;;;;;;;5023830;28;20029;-73
2023/06/04 09:09:29;;;;;;;2.83;1.70;;;;;;;;;;5019258;28;20029;-73
2023/06/04 09:11:56;;;;;;;3.47;1.50;;;;;;;;;;5012830;28;20104;-73
2023/06/04 09:14:22;;;;;;;2.75;1.73;;;;;;;;;;5016286;28;20190;-73
2023/06/04 09:16:50;;;;;;;3.20;1.52;;;;;;;;;;5022954;28;20486;-73
2023/06/04 09:19:16;;;;;;;6.70;1.70;;;;;;;;;;5023806;28;20071;-73
2023/06/04 09:21:56;;;;;;;4.30;1.88;;;;;;;;;;5023656;28;20057;-73
2023/06/04 09:24:39;;;;;;;2.00;1.55;;;;;;;;;;5023935;28;20030;-73
2023/06/04 09:27:12;;;;;;;2.92;1.60;;;;;;;;;;5019369;28;20167;-73
2023/06/04 09:29:38;;;;;;;3.50;1.50;;;;;;;;;;5016119;28;20061;-73
2023/06/04 09:32:04;;;;;;;6.07;1.83;;;;;;;;;;5018370;28;20041;-71
2023/06/04 09:34:30;;;;;;;4.38;1.60;;;;;;;;;;5019188;28;20033;-74
2023/06/04 09:36:56;;;;;;;2.72;1.30;;;;;;;;;;5028829;28;20041;-74
2023/06/04 09:39:23;;;;;;;3.08;1.58;;;;;;;;;;5030708;28;20034;-73
2023/06/04 09:42:01;;;;;;;1.83;1.30;;;;;;;;;;5027108;28;20091;-73
2023/06/04 09:44:29;;;;;;;8.07;1.65;;;;;;;;;;5020147;28;20048;-75
2023/06/04 09:46:56;;;;;;;2.22;1.40;;;;;;;;;;5023428;28;20659;-73
2023/06/04 09:49:21;;;;;;;4.78;1.92;;;;;;;;;;5021175;28;20099;-73
2023/06/04 09:51:50;;;;;;;2.40;1.60;;;;;;;;;;5026908;28;20045;-72
2023/06/04 09:54:16;;;;;;;3.17;1.60;;;;;;;;;;5025366;28;20037;-73
2023/06/04 09:56:42;;;;;;;3.42;1.73;;;;;;;;;;5025025;28;20041;-73
2023/06/04 09:59:09;;;;;;;5.32;1.70;;;;;;;;;;5024802;28;20041;-73
2023/06/04 10:01:38;;;;;;;2.97;1.40;;;;;;;;;;5026487;28;20026;-73
2023/06/04 10:04:07;;;;;;;3.80;1.50;;;;;;;;;;5026504;28;20037;-73
2023/06/04 10:06:34;;;;;;;3.95;2.15;;;;;;;;;;5026555;28;20039;-73
2023/06/04 10:09:05;;;;;;;1.90;1.20;;;;;;;;;;5026213;28;20029;-73
2023/06/04 10:11:37;;;;;;;4.85;1.60;;;;;;;;;;5026393;28;20030;-73
2023/06/04 10:14:18;;;;;;;2.70;1.80;;;;;;;;;;5026527;28;20029;-73
2023/06/04 10:16:44;;;;;;;3.60;1.65;;;;;;;;;;5032221;28;20036;-73
2023/06/04 10:19:10;;;;;;;2.28;1.40;;;;;;;;;;5026012;28;20078;-73
2023/06/04 10:21:36;;;;;;;3.13;1.67;;;;;;;;;;5024639;28;20101;-75
2023/06/04 10:24:01;;;;;;;3.25;1.42;;;;;;;;;;5019615;28;20684;-75
2023/06/04 10:26:27;;;;;;;3.60;1.50;;;;;;;;;;5026754;28;20056;-75
2023/06/04 10:28:52;;;;;;;2.92;1.48;;;;;;;;;;5025252;28;20029;-75
2023/06/04 10:31:18;;;;;;;3.13;1.55;;;;;;;;;;5026518;28;20024;-73
2023/06/04 10:33:43;;;;;;;2.92;1.33;;;;;;;;;;5014939;28;20026;-73
2023/06/04 10:36:17;;;;;;;3.20;1.42;;;;;;;;;;5022142;28;20040;-73
2023/06/04 10:38:50;;;;;;;3.25;1.77;;;;;;;;;;5021747;28;20037;-73
2023/06/04 10:41:17;;;;;;;2.42;1.80;;;;;;;;;;5025657;28;20029;-74
2023/06/04 10:43:49;;;;;;;2.10;1.48;;;;;;;;;;5026076;28;20570;-73
2023/06/04 10:46:16;;;;;;;2.35;1.25;;;;;;;;;;5026910;28;20021;-74
2023/06/04 10:48:50;;;;;;;2.10;1.50;;;;;;;;;;5025965;28;20048;-73
2023/06/04 10:51:29;;;;;;;2.08;1.42;;;;;;;;;;5024904;28;20900;-73
2023/06/04 10:53:55;;;;;;;4.32;1.73;;;;;;;;;;5026540;28;20467;-73
2023/06/04 10:56:27;;;;;;;2.30;1.52;;;;;;;;;;5027322;28;20431;-73
2023/06/04 10:58:53;;;;;;;3.63;1.80;;;;;;;;;;5033099;28;20053;-73
2023/06/04 11:01:29;;;;;;;3.00;1.55;;;;;;;;;;5038890;28;20160;-73
2023/06/04 11:03:55;;;;;;;3.03;1.73;;;;;;;;;;5027679;28;20127;-73
2023/06/04 11:06:21;;;;;;;1.90;1.50;;;;;;;;;;5024571;28;20509;-73
2023/06/04 11:08:47;;;;;;;2.30;1.80;;;;;;;;;;5023654;28;20045;-73
2023/06/04 11:11:13;;;;;;;3.22;1.50;;;;;;;;;;5024000;28;20026;-73
2023/06/04 11:13:39;;;;;;;2.10;1.42;;;;;;;;;;5024788;28;20022;-73
2023/06/04 11:16:20;;;;;;;3.00;1.48;;;;;;;;;;5024368;28;20053;-73
2023/06/04 11:18:56;;;;;;;2.00;1.23;;;;;;;;;;5024722;28;20025;-73
2023/06/04 11:21:22;;;;;;;2.80;1.52;;;;;;;;;;5023289;28;20037;-73
2023/06/04 11:23:47;;;;;;;5.10;1.50;;;;;;;;;;5024045;28;20049;-74
2023/06/04 11:26:13;;;;;;;2.00;1.42;;;;;;;;;;5020790;28;20038;-73
2023/06/04 11:28:40;;;;;;;3.35;1.48;;;;;;;;;;5017683;28;20025;-73
2023/06/04 11:31:05;;;;;;;2.40;1.50;;;;;;;;;;5025528;28;20164;-73
2023/06/04 11:33:47;;;;;;;2.40;1.50;;;;;;;;;;5024259;28;20132;-73
2023/06/04 11:36:42;;;;;;;3.22;1.40;;;;;;;;;;5024707;28;20063;-74
2023/06/04 11:39:07;;;;;;;2.70;1.42;;;;;;;;;;5019018;28;20092;-73
2023/06/04 11:41:35;;;;;;;1.65;1.42;;;;;;;;;;5024421;28;20476;-73
2023/06/04 11:44:05;;;;;;;2.20;1.50;;;;;;;;;;5014932;28;20083;-74
2023/06/04 11:46:34;;;;;;;3.78;1.70;;;;;;;;;;5024033;28;20035;-73
2023/06/04 11:49:01;;;;;;;3.10;1.55;;;;;;;;;;5024091;28;20022;-73
2023/06/04 11:51:27;;;;;;;2.33;1.63;;;;;;;;;;5022992;28;20099;-73
2023/06/04 11:53:53;;;;;;;2.15;1.75;;;;;;;;;;5023164;28;20037;-73
2023/06/04 11:56:18;;;;;;;3.25;1.88;;;;;;;;;;5022196;28;20056;-73
2023/06/04 11:58:46;;;;;;;3.20;1.70;;;;;;;;;;5020581;28;20545;-73
2023/06/04 12:01:13;;;;;;;4.32;1.77;;;;;;;;;;5016438;28;20029;-73
2023/06/04 12:03:42;;;;;;;4.68;1.70;;;;;;;;;;5021935;28;20056;-73
2023/06/04 12:06:21;;;;;;;2.17;1.50;;;;;;;;;;5023452;28;20033;-73
2023/06/04 12:08:55;;;;;;;3.03;1.70;;;;;;;;;;5015241;28;20030;-73
2023/06/04 12:11:31;;;;;;;3.45;1.85;;;;;;;;;;5024174;28;20037;-73
2023/06/04 12:13:58;;;;;;;2.58;1.63;;;;;;;;;;5024061;28;20036;-74
2023/06/04 12:16:24;;;;;;;5.38;1.95;;;;;;;;;;5024405;28;20021;-73
2023/06/04 12:18:50;;;;;;;6.53;1.88;;;;;;;;;;5023629;28;20037;-74
2023/06/04 12:21:27;;;;;;;3.45;1.90;;;;;;;;;;5028371;28;20593;-73
2023/06/04 12:24:05;;;;;;;2.55;1.85;;;;;;;;;;5035763;28;20025;-73
2023/06/04 12:26:32;;;;;;;5.07;1.77;;;;;;;;;;5028248;28;20036;-73
2023/06/04 12:29:01;;;;;;;4.32;1.80;;;;;;;;;;5024671;28;20033;-74
2023/06/04 12:31:31;;;;;;;3.25;2.00;;;;;;;;;;5016250;28;20065;-73
2023/06/04 12:34:00;;;;;;;2.80;1.60;;;;;;;;;;5024061;28;20048;-74
2023/06/04 12:36:26;;;;;;;2.50;1.75;;;;;;;;;;5024105;28;20517;-74
2023/06/04 12:38:51;;;;;;;2.30;1.65;;;;;;;;;;5015526;28;20171;-70
2023/06/04 12:41:16;;;;;;;3.40;1.63;;;;;;;;;;5023076;28;20506;-74
2023/06/04 12:43:42;;;;;;;1.95;1.75;;;;;;;;;;5014098;28;20034;-74
2023/06/04 12:46:07;;;;;;;11.93;2.47;;;;;;;;;;5017038;28;20041;-74
2023/06/04 12:48:33;;;;;;;3.20;1.95;;;;;;;;;;5019914;28;20029;-73
2023/06/04 12:50:58;;;;;;;2.17;1.60;;;;;;;;;;5021377;28;20550;-74
2023/06/04 12:53:24;;;;;;;5.32;1.90;;;;;;;;;;5022335;28;20038;-74
2023/06/04 12:55:50;;;;;;;2.97;1.77;;;;;;;;;;5020235;28;20172;-74
2023/06/04 12:58:15;;;;;;;3.08;1.80;;;;;;;;;;5022478;28;20742;-73
2023/06/04 13:00:40;;;;;;;3.22;1.75;;;;;;;;;;5021478;28;20084;-74
2023/06/04 13:03:08;;;;;;;3.47;1.88;;;;;;;;;;5020762;28;20088;-73
2023/06/04 13:05:34;;;;;;;6.70;2.20;;;;;;;;;;5021765;28;20972;-74
2023/06/04 13:07:59;;;;;;;3.83;1.75;;;;;;;;;;5020800;28;20037;-74
2023/06/04 13:10:24;;;;;;;3.60;1.83;;;;;;;;;;5022482;28;20064;-74
2023/06/04 13:12:50;;;;;;;2.20;1.60;;;;;;;;;;5019422;28;20587;-74
2023/06/04 13:15:16;;;;;;;3.35;1.80;;;;;;;;;;5024105;28;20049;-73
2023/06/04 13:17:41;;;;;;;4.43;1.73;;;;;;;;;;5026236;28;20600;-73
2023/06/04 13:20:07;;;;;;;3.28;1.60;;;;;;;;;;5023389;28;20033;-73
2023/06/04 13:22:33;;;;;;;3.22;1.88;;;;;;;;;;5007418;28;20610;-73
2023/06/04 13:24:58;;;;;;;3.00;1.70;;;;;;;;;;5021821;28;20116;-73
2023/06/04 13:27:23;;;;;;;1.92;1.50;;;;;;;;;;5022061;28;20038;-74
2023/06/04 13:29:49;;;;;;;2.75;1.83;;;;;;;;;;5023047;28;20033;-74
2023/06/04 13:32:14;;;;;;;2.60;1.80;;;;;;;;;;5025042;28;20406;-74
2023/06/04 13:34:39;;;;;;;2.60;1.40;;;;;;;;;;5025586;28;20028;-73
2023/06/04 13:37:05;;;;;;;3.42;1.77;;;;;;;;;;5025376;28;20052;-74
2023/06/04 13:39:30;;;;;;;2.70;1.70;;;;;;;;;;5020466;28;20038;-74
2023/06/04 13:41:55;;;;;;;3.13;1.85;;;;;;;;;;5025959;28;20041;-74
2023/06/04 13:44:25;;;;;;;2.58;1.83;;;;;;;;;;5029034;28;20098;-74
2023/06/04 13:46:51;;;;;;;3.58;1.83;;;;;;;;;;5034573;28;20060;-74
2023/06/04 13:49:16;;;;;;;2.08;1.80;;;;;;;;;;5034122;28;20372;-74
2023/06/04 13:51:41;;;;;;;11.13;1.92;;;;;;;;;;5025936;28;20049;-74
2023/06/04 13:54:07;;;;;;;3.03;1.88;;;;;;;;;;5024547;28;20096;-74
2023/06/04 13:56:32;;;;;;;6.53;1.90;;;;;;;;;;5025144;28;20059;-74
2023/06/04 13:58:57;;;;;;;2.78;2.10;;;;;;;;;;5025249;28;20060;-74
2023/06/04 14:01:23;;;;;;;4.78;1.83;;;;;;;;;;5025183;28;20032;-74
2023/06/04 14:03:48;;;;;;;4.60;1.77;;;;;;;;;;5023569;28;20053;-74
2023/06/04 14:06:14;;;;;;;1.88;1.42;;;;;;;;;;5024067;28;20735;-74
2023/06/04 14:08:39;;;;;;;3.42;1.85;;;;;;;;;;5023298;28;20035;-74
2023/06/04 14:11:05;;;;;;;2.42;1.73;;;;;;;;;;5024882;28;20120;-74
2023/06/04 14:13:30;;;;;;;3.10;1.80;;;;;;;;;;5024825;28;20047;-74
2023/06/04 14:15:56;;;;;;;3.67;1.90;;;;;;;;;;5024936;28;20514;-74
2023/06/04 14:18:21;;;;;;;2.20;1.65;;;;;;;;;;5019160;28;20038;-74
2023/06/04 14:20:47;;;;;;;2.35;1.50;;;;;;;;;;5018378;28;20036;-74
2023/06/04 14:23:12;;;;;;;2.45;1.80;;;;;;;;;;5021334;28;20139;-74
2023/06/04 14:25:37;;;;;;;3.17;1.98;;;;;;;;;;5024577;28;20406;-74
2023/06/04 14:28:03;;;;;;;2.22;1.58;;;;;;;;;;5023396;28;20380;-74
2023/06/04 14:30:28;;;;;;;2.92;1.67;;;;;;;;;;5017859;28;20029;-74
2023/06/04 14:32:54;;;;;;;3.88;1.90;;;;;;;;;;5024468;28;20046;-74
2023/06/04 14:35:19;;;;;;;3.75;2.00;;;;;;;;;;5024429;28;20087;-74
2023/06/04 14:37:44;;;;;;;2.42;1.98;;;;;;;;;;5024671;28;20180;-74
2023/06/04 14:40:10;;;;;;;1.90;1.70;;;;;;;;;;5017722;28;20388;-74